Time;durP1;ratioP1;P1;durP2;ratioP2;P2;SDS_P1;SDS_P2;PMS_P1;PMS_P2;Temp;Humidity;BMP_temperature;BMP_pressure;BME280_temperature;BME280_humidity;BME280_pressure;Samples;Min_cycle;Max_cycle;Signal;HPM_P1;HPM_P2
2023/09/19 00:00:48;;;;;;;8.75;4.45;;;;;;;25.77;47.55;99039.38;4442299;32;32681;-72
2023/09/19 00:03:17;;;;;;;7.55;4.45;;;;;;;25.84;47.49;99043.97;4419303;32;34040;-71
2023/09/19 00:05:45;;;;;;;8.48;4.75;;;;;;;25.71;47.73;99043.03;4417355;32;33726;-71
2023/09/19 00:08:13;;;;;;;15.73;3.87;;;;;;;25.99;47.03;99042.47;4415605;32;33131;-70
2023/09/19 00:10:42;;;;;;;9.57;4.47;;;;;;;25.79;47.54;99045.47;4415286;32;33176;-70
2023/09/19 00:13:13;;;;;;;11.07;5.93;;;;;;;25.58;48.15;99039.63;4420263;32;34427;-70
2023/09/19 00:15:48;;;;;;;8.63;4.45;;;;;;;25.58;48.19;99040.44;4417711;32;33584;-70
2023/09/19 00:18:21;;;;;;;10.60;5.53;;;;;;;25.55;48.24;99038.16;4416110;32;33945;-70
2023/09/19 00:20:51;;;;;;;8.93;5.03;;;;;;;25.33;48.85;99044.12;4415576;32;34499;-70
2023/09/19 00:23:20;;;;;;;8.93;5.10;;;;;;;25.15;49.27;99041.34;4416179;32;33789;-77
2023/09/19 00:25:48;;;;;;;9.45;5.57;;;;;;;25.01;49.83;99037.06;4417901;32;33669;-78
2023/09/19 00:28:18;;;;;;;14.13;5.45;;;;;;;25.01;49.89;99035.16;4431898;32;32744;-75
2023/09/19 00:30:52;;;;;;;9.32;5.68;;;;;;;24.96;50.16;99032.25;4425533;32;33558;-68
2023/09/19 00:33:24;;;;;;;11.18;5.68;;;;;;;24.16;52.46;99034.75;4418567;32;33578;-69
2023/09/19 00:35:53;;;;;;;10.55;5.53;;;;;;;24.53;51.54;99030.31;4415883;32;33406;-67
2023/09/19 00:38:22;;;;;;;9.48;5.60;;;;;;;24.48;51.72;99026.56;4419112;32;35064;-69
2023/09/19 00:40:53;;;;;;;8.95;5.37;;;;;;;24.48;51.81;99032.87;4421318;32;35140;-67
2023/09/19 00:43:24;;;;;;;19.70;6.35;;;;;;;24.12;52.82;99034.34;4419233;32;34029;-68
2023/09/19 00:45:54;;;;;;;11.48;5.93;;;;;;;24.09;52.97;99023.00;4418465;32;34500;-68
2023/09/19 00:48:22;;;;;;;16.90;5.82;;;;;;;24.17;52.76;99034.53;4416885;32;32770;-67
2023/09/19 00:50:50;;;;;;;10.55;5.22;;;;;;;23.94;53.62;99032.34;4416475;32;32426;-69
2023/09/19 00:53:20;;;;;;;16.12;8.70;;;;;;;23.53;54.54;99030.00;4415930;32;34246;-69
2023/09/19 00:55:49;;;;;;;8.27;4.90;;;;;;;23.60;54.54;99033.53;4416907;32;34335;-70
2023/09/19 00:58:18;;;;;;;11.10;5.80;;;;;;;23.81;53.93;99026.94;4418196;32;34829;-70
2023/09/19 01:00:48;;;;;;;10.75;4.90;;;;;;;24.05;53.36;99030.00;4440935;32;35067;-70
2023/09/19 01:03:15;;;;;;;16.08;5.82;;;;;;;24.28;52.74;99027.50;4424578;32;33649;-70
2023/09/19 01:05:43;;;;;;;7.93;5.55;;;;;;;24.02;53.39;99027.69;4422687;32;32357;-67
2023/09/19 01:08:11;;;;;;;10.63;5.75;;;;;;;24.07;53.31;99030.59;4422330;32;35497;-68
2023/09/19 01:11:08;;;;;;;11.35;5.85;;;;;;;24.01;53.65;99023.25;4419302;32;34829;-68
2023/09/19 01:13:57;;;;;;;12.27;5.78;;;;;;;24.25;52.84;99025.22;4430272;32;36340;-68
2023/09/19 01:16:28;;;;;;;16.67;5.93;;;;;;;24.06;53.42;99026.19;4424512;32;35238;-68
2023/09/19 01:19:34;;;;;;;11.05;5.37;;;;;;;23.98;53.62;99035.50;4419913;32;31885;-68
2023/09/19 01:22:17;;;;;;;11.57;5.97;;;;;;;23.89;54.02;99029.44;4420299;32;34584;-68
2023/09/19 01:25:15;;;;;;;13.13;6.37;;;;;;;24.00;53.79;99024.31;4421561;32;33572;-68
2023/09/19 01:28:02;;;;;;;9.88;5.75;;;;;;;24.08;53.62;99024.91;4421930;32;34748;-68
2023/09/19 01:30:33;;;;;;;13.25;6.53;;;;;;;23.71;54.81;99027.41;4426429;32;33009;-68
2023/09/19 01:33:04;;;;;;;14.43;6.57;;;;;;;24.21;53.45;99020.44;4420871;32;34431;-68
2023/09/19 01:35:32;;;;;;;13.40;6.45;;;;;;;23.70;54.86;99013.97;4419994;32;35170;-68
2023/09/19 01:38:00;;;;;;;11.00;7.05;;;;;;;23.97;54.18;99005.63;4421300;32;32721;-68
2023/09/19 01:40:28;;;;;;;8.98;6.53;;;;;;;24.07;53.87;99005.97;4428968;32;33139;-68
2023/09/19 01:43:00;;;;;;;15.93;7.47;;;;;;;24.25;53.31;99010.72;4422812;32;33837;-68
2023/09/19 01:45:40;;;;;;;11.80;5.82;;;;;;;23.97;54.17;99013.84;4417924;32;35531;-68
2023/09/19 01:48:20;;;;;;;12.60;7.05;;;;;;;24.06;54.05;99009.78;4412993;32;33452;-68
2023/09/19 01:51:03;;;;;;;22.90;6.43;;;;;;;24.07;54.10;99011.44;4415820;32;33318;-68
2023/09/19 01:53:36;;;;;;;11.65;6.55;;;;;;;23.88;54.56;99014.09;4420731;32;32548;-70
2023/09/19 01:56:07;;;;;;;13.38;6.10;;;;;;;23.90;54.54;99005.66;4438954;32;33621;-70
2023/09/19 01:58:45;;;;;;;10.98;6.18;;;;;;;23.90;54.56;99006.50;4431062;32;32180;-70
2023/09/19 02:01:17;;;;;;;14.60;8.40;;;;;;;23.56;55.59;99009.59;4428930;32;34533;-70
2023/09/19 02:03:47;;;;;;;13.62;7.65;;;;;;;23.84;54.81;99012.84;4420738;32;32217;-70
2023/09/19 02:06:15;;;;;;;12.35;8.00;;;;;;;24.01;54.36;99012.31;4427329;32;33614;-70
2023/09/19 02:08:44;;;;;;;11.05;6.60;;;;;;;23.63;55.36;99008.53;4418615;32;34428;-69
2023/09/19 02:11:13;;;;;;;14.25;8.65;;;;;;;23.76;55.24;99006.81;4421340;32;34719;-69
2023/09/19 02:13:41;;;;;;;12.75;7.68;;;;;;;23.45;56.08;99011.94;4422474;32;33476;-70
2023/09/19 02:16:10;;;;;;;14.18;9.00;;;;;;;23.36;56.43;99015.97;4423405;32;33806;-69
2023/09/19 02:18:39;;;;;;;11.07;7.00;;;;;;;23.57;55.70;99019.47;4420533;32;34892;-69
2023/09/19 02:21:07;;;;;;;17.02;8.45;;;;;;;23.75;55.29;99008.69;4423495;32;32876;-69
2023/09/19 02:23:34;;;;;;;10.68;7.00;;;;;;;24.08;54.35;99005.78;4421641;32;32560;-69
2023/09/19 02:26:03;;;;;;;12.18;6.43;;;;;;;24.06;54.31;99001.59;4420240;32;33415;-70
2023/09/19 02:28:31;;;;;;;12.95;6.20;;;;;;;23.81;55.04;99004.25;4431798;32;33508;-70
2023/09/19 02:31:00;;;;;;;10.30;6.90;;;;;;;23.94;54.70;99004.16;4433832;32;33289;-70
2023/09/19 02:33:32;;;;;;;14.85;9.23;;;;;;;23.75;55.25;99014.16;4422792;32;33714;-70
2023/09/19 02:36:00;;;;;;;14.48;6.65;;;;;;;24.03;54.44;99010.22;4421535;32;33717;-70
2023/09/19 02:38:28;;;;;;;23.08;6.95;;;;;;;24.12;54.10;99011.66;4422348;32;34620;-70
2023/09/19 02:40:56;;;;;;;12.77;7.68;;;;;;;24.33;53.51;99005.81;4424468;32;33353;-70
2023/09/19 02:43:24;;;;;;;16.23;7.78;;;;;;;23.92;54.60;99007.12;4422858;32;33863;-70
2023/09/19 02:45:57;;;;;;;12.43;7.30;;;;;;;23.75;55.09;99014.16;4424947;32;33973;-70
2023/09/19 02:48:25;;;;;;;17.85;8.05;;;;;;;23.81;55.00;99007.81;4421198;32;33454;-70
2023/09/19 02:50:53;;;;;;;10.35;6.72;;;;;;;24.04;54.25;99010.00;4421845;32;32637;-70
2023/09/19 02:53:20;;;;;;;15.40;7.40;;;;;;;23.94;54.47;99010.47;4420776;32;33233;-70
2023/09/19 02:55:48;;;;;;;13.30;6.93;;;;;;;23.79;54.93;99012.69;4420368;32;33462;-69
2023/09/19 02:58:18;;;;;;;12.02;6.62;;;;;;;23.52;55.73;99005.63;4432281;32;33542;-69
2023/09/19 03:00:47;;;;;;;11.20;6.47;;;;;;;23.77;54.98;98995.66;4434607;32;34304;-70
2023/09/19 03:03:16;;;;;;;13.20;7.15;;;;;;;24.27;53.66;99001.25;4417647;32;35020;-70
2023/09/19 03:05:46;;;;;;;9.88;7.07;;;;;;;24.54;52.76;99006.53;4417716;32;33619;-70
2023/09/19 03:08:16;;;;;;;16.42;7.95;;;;;;;24.71;52.25;99006.78;4416867;32;33478;-69
2023/09/19 03:10:46;;;;;;;10.70;5.05;;;;;;;24.58;52.57;99024.16;4414801;32;31649;-69
2023/09/19 03:13:14;;;;;;;11.88;7.10;;;;;;;24.69;52.25;99017.97;4418468;32;33377;-69
2023/09/19 03:15:50;;;;;;;12.45;7.30;;;;;;;24.18;53.59;99019.81;4417479;32;32857;-69
2023/09/19 03:18:19;;;;;;;19.40;8.77;;;;;;;22.77;58.03;99016.91;4417475;32;34277;-69
2023/09/19 03:20:59;;;;;;;16.98;7.97;;;;;;;22.97;57.42;99025.94;4417234;32;31624;-68
2023/09/19 03:23:29;;;;;;;19.50;8.27;;;;;;;23.39;56.10;99012.78;4417094;32;33193;-69
2023/09/19 03:25:58;;;;;;;22.55;7.43;;;;;;;23.46;55.94;99010.87;4418508;32;36454;-69
2023/09/19 03:28:27;;;;;;;14.10;7.20;;;;;;;23.44;55.92;99014.91;4423550;32;33715;-69
2023/09/19 03:31:03;;;;;;;12.00;5.65;;;;;;;23.69;55.25;99015.00;4419284;32;32162;-69
2023/09/19 03:33:33;;;;;;;8.48;6.25;;;;;;;24.05;54.06;99017.16;4419078;32;34774;-68
2023/09/19 03:36:04;;;;;;;15.68;6.82;;;;;;;23.91;54.39;99019.09;4419098;32;32457;-69
2023/09/19 03:38:34;;;;;;;10.85;6.70;;;;;;;23.89;54.56;99021.25;4422118;32;33343;-69
2023/09/19 03:41:02;;;;;;;11.88;5.90;;;;;;;23.66;55.22;99021.75;4424395;32;34166;-69
2023/09/19 03:43:31;;;;;;;23.25;6.78;;;;;;;23.62;55.36;99025.09;4418183;32;32650;-69
2023/09/19 03:46:04;;;;;;;10.00;6.55;;;;;;;23.37;56.20;99016.78;4418409;32;33921;-69
2023/09/19 03:48:33;;;;;;;16.08;7.65;;;;;;;23.62;55.44;99025.09;4418175;32;34224;-69
2023/09/19 03:51:02;;;;;;;11.32;6.93;;;;;;;23.45;56.01;99022.88;4418831;32;32935;-69
2023/09/19 03:53:29;;;;;;;24.48;8.77;;;;;;;23.47;55.98;99019.94;4419289;32;34479;-69
2023/09/19 03:55:57;;;;;;;12.37;6.97;;;;;;;23.46;56.09;99030.00;4419846;32;36177;-69
2023/09/19 03:58:25;;;;;;;10.63;6.18;;;;;;;23.46;56.08;99027.25;4418097;32;33342;-69
2023/09/19 04:00:56;;;;;;;10.43;6.28;;;;;;;23.67;55.62;99028.88;4419529;32;33868;-69
2023/09/19 04:03:34;;;;;;;11.45;7.15;;;;;;;24.06;54.52;99028.91;4418979;32;34190;-69
2023/09/19 04:06:02;;;;;;;8.77;5.87;;;;;;;24.14;54.31;99031.38;4419896;32;35556;-69
2023/09/19 04:08:30;;;;;;;10.30;6.47;;;;;;;24.34;53.65;99023.91;4420123;32;31857;-69
2023/09/19 04:10:58;;;;;;;10.68;7.15;;;;;;;24.21;54.21;99029.47;4418928;32;33999;-69
2023/09/19 04:13:26;;;;;;;12.65;7.22;;;;;;;24.28;54.02;99030.25;4418552;32;33331;-68
2023/09/19 04:15:54;;;;;;;16.10;7.45;;;;;;;24.47;53.64;99031.19;4419477;32;34986;-68
2023/09/19 04:18:23;;;;;;;8.43;5.82;;;;;;;24.66;53.23;99037.56;4418055;32;33769;-70
2023/09/19 04:20:51;;;;;;;8.68;4.97;;;;;;;24.62;53.45;99042.66;4419280;32;32116;-71
2023/09/19 04:23:20;;;;;;;8.95;5.85;;;;;;;23.96;55.33;99036.75;4419919;32;33280;-70
2023/09/19 04:25:48;;;;;;;8.13;3.80;;;;;;;24.25;54.43;99047.09;4418571;32;32858;-69
2023/09/19 04:28:16;;;;;;;4.62;2.62;;;;;;;23.54;55.79;99053.50;4422643;32;32704;-69
2023/09/19 04:30:44;;;;;;;5.35;2.75;;;;;;;23.64;54.98;99062.09;4418792;32;34205;-69
2023/09/19 04:33:14;;;;;;;3.33;1.48;;;;;;;23.84;54.07;99053.84;4421163;32;33425;-69
2023/09/19 04:35:44;;;;;;;3.50;1.37;;;;;;;23.31;55.18;99067.66;4419410;32;33772;-69
2023/09/19 04:38:13;;;;;;;3.15;1.37;;;;;;;23.58;54.66;99056.66;4419936;32;35484;-69
2023/09/19 04:40:41;;;;;;;2.17;0.95;;;;;;;23.02;56.45;99071.69;4427410;32;33037;-68
2023/09/19 04:43:08;;;;;;;17.60;1.33;;;;;;;22.95;57.19;99074.44;4418293;32;32531;-69
2023/09/19 04:45:38;;;;;;;6.03;1.27;;;;;;;22.62;58.54;99093.47;4419197;32;32640;-69
2023/09/19 04:48:06;;;;;;;3.42;0.55;;;;;;;23.01;57.50;99083.66;4419106;32;33467;-69
2023/09/19 04:50:34;;;;;;;2.15;1.20;;;;;;;22.72;58.49;99093.91;4420285;32;32057;-70
2023/09/19 04:53:03;;;;;;;1.90;1.12;;;;;;;22.28;59.83;99087.16;4420265;32;35048;-69
2023/09/19 04:55:32;;;;;;;1.55;0.70;;;;;;;22.54;59.04;99089.06;4420258;32;35592;-70
2023/09/19 04:58:00;;;;;;;1.37;0.62;;;;;;;22.77;58.36;99090.56;4418829;32;32666;-69
2023/09/19 05:00:30;;;;;;;5.43;1.23;;;;;;;22.65;58.81;99097.69;4420543;32;32087;-69
2023/09/19 05:02:58;;;;;;;1.77;0.93;;;;;;;22.96;57.65;99103.38;4421943;32;33163;-68
2023/09/19 05:05:26;;;;;;;1.20;0.73;;;;;;;22.55;58.77;99109.81;4421366;32;33942;-70
2023/09/19 05:07:55;;;;;;;1.55;0.75;;;;;;;22.18;59.71;99113.94;4421377;32;35802;-69
2023/09/19 05:10:23;;;;;;;0.88;0.43;;;;;;;22.18;59.60;99121.28;4423073;32;32526;-69
2023/09/19 05:12:54;;;;;;;0.30;0.28;;;;;;;22.29;58.96;99124.25;4421674;32;34490;-70
2023/09/19 05:15:21;;;;;;;1.52;0.50;;;;;;;22.70;57.33;99117.00;4424188;32;33608;-69
2023/09/19 05:17:54;;;;;;;2.50;0.85;;;;;;;22.64;57.48;99121.38;4422184;32;33354;-69
2023/09/19 05:20:33;;;;;;;0.60;0.43;;;;;;;22.51;57.70;99127.66;4420803;32;33979;-69
2023/09/19 05:23:16;;;;;;;1.85;0.65;;;;;;;22.09;58.62;99128.78;4419660;32;33596;-70
2023/09/19 05:25:44;;;;;;;1.10;0.68;;;;;;;21.89;59.19;99134.13;4420841;32;35416;-70
2023/09/19 05:28:14;;;;;;;5.45;0.80;;;;;;;22.42;57.49;99139.81;4424094;32;33244;-69
2023/09/19 05:30:43;;;;;;;1.73;0.82;;;;;;;22.35;57.53;99133.50;4420247;32;33535;-69
2023/09/19 05:33:15;;;;;;;1.20;0.68;;;;;;;22.58;56.80;99122.22;4422389;32;34907;-69
2023/09/19 05:35:43;;;;;;;1.80;0.37;;;;;;;22.18;57.80;99121.28;4422102;32;33296;-69
2023/09/19 05:38:12;;;;;;;0.52;0.52;;;;;;;22.05;58.31;99122.91;4424299;32;34104;-69
2023/09/19 05:40:45;;;;;;;1.17;0.70;;;;;;;22.05;58.35;99113.84;4427531;32;33435;-69
2023/09/19 05:43:14;;;;;;;1.40;0.60;;;;;;;22.00;58.32;99117.22;4420769;32;33582;-69
2023/09/19 05:45:42;;;;;;;3.10;1.10;;;;;;;21.80;59.15;99130.75;4424601;32;33534;-68
2023/09/19 05:48:15;;;;;;;1.45;0.52;;;;;;;21.92;58.79;99125.53;4420661;32;33346;-73
2023/09/19 05:50:43;;;;;;;2.30;1.12;;;;;;;22.00;58.62;99136.28;4420013;32;32839;-69
2023/09/19 05:53:12;;;;;;;0.45;0.30;;;;;;;21.89;58.76;99136.00;4421284;32;33052;-69
2023/09/19 05:55:40;;;;;;;1.52;0.60;;;;;;;21.60;59.68;99138.81;4422429;32;34202;-69
2023/09/19 05:58:09;;;;;;;1.55;0.52;;;;;;;21.89;58.92;99136.84;4420489;32;33517;-69
2023/09/19 06:00:37;;;;;;;2.15;0.43;;;;;;;21.81;59.38;99137.03;4426391;32;33255;-70
2023/09/19 06:03:07;;;;;;;1.58;0.85;;;;;;;21.91;58.87;99137.50;4430890;32;33706;-70
2023/09/19 06:05:35;;;;;;;1.45;0.52;;;;;;;21.78;59.63;99135.53;4432036;32;34007;-70
2023/09/19 06:08:07;;;;;;;3.67;1.48;;;;;;;21.33;60.91;99139.66;4432255;32;32815;-70
2023/09/19 06:10:35;;;;;;;4.10;0.77;;;;;;;21.05;61.84;99137.75;4433081;32;33041;-70
2023/09/19 06:13:09;;;;;;;1.62;0.57;;;;;;;21.69;60.33;99150.38;4430991;32;34726;-69
2023/09/19 06:15:37;;;;;;;0.70;0.30;;;;;;;21.26;61.98;99150.47;4436192;32;33663;-70
2023/09/19 06:18:12;;;;;;;1.10;0.52;;;;;;;21.49;61.22;99154.87;4431084;32;33072;-70
2023/09/19 06:20:44;;;;;;;1.65;0.65;;;;;;;21.54;60.73;99155.94;4434979;32;34704;-70
2023/09/19 06:23:11;;;;;;;1.92;1.25;;;;;;;21.40;61.49;99148.72;4431049;32;33765;-69
2023/09/19 06:25:39;;;;;;;0.85;0.45;;;;;;;21.56;61.08;99156.56;4431741;32;33709;-69
2023/09/19 06:28:08;;;;;;;1.33;0.75;;;;;;;21.03;62.97;99161.59;4431296;32;32202;-69
2023/09/19 06:30:35;;;;;;;1.02;0.40;;;;;;;21.35;62.21;99164.81;4434390;32;32907;-69
2023/09/19 06:33:03;;;;;;;1.12;0.52;;;;;;;21.31;62.43;99166.22;4431789;32;35237;-70
2023/09/19 06:35:35;;;;;;;5.43;1.02;;;;;;;21.51;62.05;99174.53;4430757;32;35746;-70
2023/09/19 06:38:03;;;;;;;0.85;0.62;;;;;;;21.09;64.04;99171.72;4434388;32;33832;-69
2023/09/19 06:40:34;;;;;;;2.97;0.77;;;;;;;21.00;64.65;99174.75;4438835;32;34392;-70
2023/09/19 06:43:02;;;;;;;2.08;0.68;;;;;;;21.05;65.06;99175.00;4431940;32;34561;-70
2023/09/19 06:45:29;;;;;;;3.28;0.57;;;;;;;21.15;64.59;99173.66;4434870;32;33299;-70
2023/09/19 06:47:57;;;;;;;1.17;0.57;;;;;;;21.01;65.58;99182.72;4431108;32;33832;-70
2023/09/19 06:50:26;;;;;;;2.42;0.85;;;;;;;21.52;63.90;99189.84;4432519;32;34743;-70
2023/09/19 06:52:57;;;;;;;1.35;0.62;;;;;;;21.07;66.19;99184.66;4430733;32;33933;-70
2023/09/19 06:55:27;;;;;;;0.85;0.65;;;;;;;21.16;65.45;99194.38;4430341;32;33487;-70
2023/09/19 06:57:56;;;;;;;3.10;0.40;;;;;;;20.99;65.97;99209.25;4431540;32;33996;-69
2023/09/19 07:00:24;;;;;;;1.20;0.47;;;;;;;21.07;65.78;99217.31;4436974;32;33101;-70
2023/09/19 07:03:00;;;;;;;1.17;0.52;;;;;;;21.07;66.24;99220.03;4434197;32;33948;-69
2023/09/19 07:05:32;;;;;;;2.20;0.40;;;;;;;20.77;67.42;99226.63;4434181;32;34917;-69
2023/09/19 07:08:00;;;;;;;0.77;0.60;;;;;;;20.87;67.48;99229.88;4432956;32;35115;-69
2023/09/19 07:10:29;;;;;;;3.95;0.98;;;;;;;20.58;68.10;99234.38;4434391;32;35401;-69
2023/09/19 07:13:04;;;;;;;1.10;0.47;;;;;;;20.47;68.53;99226.69;4432563;32;33571;-70
2023/09/19 07:15:38;;;;;;;0.43;0.43;;;;;;;20.57;67.93;99237.28;4431545;32;32406;-69
2023/09/19 07:18:07;;;;;;;0.75;0.65;;;;;;;20.42;69.18;99243.56;4436244;32;34011;-70
2023/09/19 07:20:34;;;;;;;1.20;0.57;;;;;;;20.31;68.64;99245.91;4432179;32;32986;-69
2023/09/19 07:23:02;;;;;;;2.05;1.05;;;;;;;20.35;69.41;99250.81;4432576;32;35077;-69
2023/09/19 07:25:30;;;;;;;1.55;0.70;;;;;;;20.02;71.51;99248.47;4432426;32;34629;-70
2023/09/19 07:27:59;;;;;;;1.02;0.82;;;;;;;20.72;68.87;99243.53;4434444;32;32906;-69
2023/09/19 07:30:28;;;;;;;1.45;0.62;;;;;;;21.11;67.48;99237.63;4437939;32;32865;-70
2023/09/19 07:32:56;;;;;;;2.20;0.90;;;;;;;21.21;67.44;99247.34;4429844;32;33552;-70
2023/09/19 07:35:25;;;;;;;1.98;0.85;;;;;;;21.01;67.52;99245.28;4432601;32;33529;-70
2023/09/19 07:37:53;;;;;;;1.95;0.52;;;;;;;21.55;66.10;99252.94;4430060;32;35078;-70
2023/09/19 07:40:20;;;;;;;2.60;0.88;;;;;;;20.46;69.97;99252.19;4440629;32;32955;-70
2023/09/19 07:42:50;;;;;;;1.50;0.90;;;;;;;21.01;68.02;99256.16;4431998;32;33219;-70
2023/09/19 07:45:18;;;;;;;2.87;1.25;;;;;;;21.35;66.67;99260.94;4431923;32;34262;-70
2023/09/19 07:47:50;;;;;;;2.40;0.75;;;;;;;21.60;65.65;99266.81;4432681;32;33938;-70
2023/09/19 07:50:19;;;;;;;3.00;0.93;;;;;;;21.90;64.58;99276.66;4432900;32;35335;-70
2023/09/19 07:52:48;;;;;;;2.65;1.12;;;;;;;21.59;65.61;99273.25;4431206;32;34427;-70
2023/09/19 07:55:17;;;;;;;1.85;0.57;;;;;;;21.91;64.26;99283.78;4430929;32;33940;-71
2023/09/19 07:57:46;;;;;;;1.62;0.73;;;;;;;21.73;64.50;99281.53;4431969;32;33354;-71
2023/09/19 08:00:14;;;;;;;1.33;0.75;;;;;;;21.77;65.09;99286.41;4431446;32;33503;-70
2023/09/19 08:02:42;;;;;;;4.82;1.42;;;;;;;21.82;65.17;99286.63;4421154;32;34669;-71
2023/09/19 08:05:11;;;;;;;3.53;0.57;;;;;;;21.95;64.48;99287.78;4420208;32;35337;-70
2023/09/19 08:07:40;;;;;;;1.08;0.62;;;;;;;21.82;64.94;99291.25;4422577;32;33108;-70
2023/09/19 08:10:19;;;;;;;2.17;1.17;;;;;;;21.62;65.51;99291.94;4420096;32;33568;-70
2023/09/19 08:12:48;;;;;;;2.42;1.10;;;;;;;21.91;63.98;99300.97;4420365;32;32563;-71
2023/09/19 08:15:18;;;;;;;3.05;1.00;;;;;;;21.83;64.89;99304.69;4424214;32;33186;-71
2023/09/19 08:17:50;;;;;;;0.73;0.52;;;;;;;21.07;67.10;99308.97;4420930;32;32557;-70
2023/09/19 08:20:21;;;;;;;1.23;0.50;;;;;;;21.02;66.90;99304.09;4422064;32;34397;-70
2023/09/19 08:22:52;;;;;;;2.00;1.15;;;;;;;21.76;64.66;99303.78;4422961;32;33295;-71
2023/09/19 08:25:21;;;;;;;1.17;0.73;;;;;;;21.68;65.23;99308.53;4420522;32;34288;-71
2023/09/19 08:27:49;;;;;;;1.45;0.52;;;;;;;21.74;64.96;99310.47;4424928;32;32355;-71
2023/09/19 08:30:20;;;;;;;2.65;1.35;;;;;;;21.76;64.38;99314.66;4423152;32;31860;-71
2023/09/19 08:32:47;;;;;;;2.05;0.73;;;;;;;21.63;64.85;99318.13;4421702;32;33636;-71
2023/09/19 08:35:16;;;;;;;4.12;1.05;;;;;;;21.72;64.62;99318.84;4419842;32;32804;-71
2023/09/19 08:37:46;;;;;;;3.83;1.00;;;;;;;21.88;64.69;99325.88;4422057;32;35491;-71
2023/09/19 08:40:14;;;;;;;1.00;0.57;;;;;;;21.75;65.02;99333.94;4422639;32;33331;-77
2023/09/19 08:42:53;;;;;;;2.60;0.95;;;;;;;21.97;64.37;99337.47;4422307;32;33378;-77
2023/09/19 08:45:24;;;;;;;2.05;0.60;;;;;;;21.70;65.11;99344.56;4423493;32;33476;-68
2023/09/19 08:48:14;;;;;;;2.20;1.05;;;;;;;21.82;64.59;99356.62;4421339;32;35208;-68
2023/09/19 08:50:51;;;;;;;5.65;2.50;;;;;;;21.63;65.69;99366.31;4422935;32;34621;-68
2023/09/19 08:53:29;;;;;;;1.98;1.02;;;;;;;21.84;64.92;99368.19;4422506;32;33414;-67
2023/09/19 08:55:57;;;;;;;3.83;1.73;;;;;;;21.77;65.51;99375.47;4415658;32;33812;-67
2023/09/19 08:58:30;;;;;;;4.12;2.20;;;;;;;21.74;65.93;99378.56;4403932;32;33470;-68
2023/09/19 09:00:58;;;;;;;1.90;1.12;;;;;;;22.00;65.19;99367.06;4391881;32;34783;-67
2023/09/19 09:03:26;;;;;;;2.40;1.25;;;;;;;21.87;64.99;99365.91;4399483;32;35031;-67
2023/09/19 09:05:55;;;;;;;5.12;2.90;;;;;;;21.94;65.58;99354.22;4385457;32;35887;-67
2023/09/19 09:08:23;;;;;;;5.12;1.80;;;;;;;21.80;66.63;99354.09;4385787;32;33693;-66
2023/09/19 09:10:51;;;;;;;5.28;2.80;;;;;;;22.13;65.16;99337.16;4400409;32;33250;-67
2023/09/19 09:13:19;;;;;;;3.83;1.62;;;;;;;22.09;66.17;99325.00;4400681;32;34349;-67
2023/09/19 09:15:47;;;;;;;3.70;1.98;;;;;;;22.23;65.40;99309.59;4403402;32;34789;-66
2023/09/19 09:18:14;;;;;;;3.67;1.58;;;;;;;22.27;65.55;99306.25;4368046;32;33294;-67
2023/09/19 09:20:44;;;;;;;2.47;1.70;;;;;;;22.38;64.92;99307.59;4368056;32;32304;-67
2023/09/19 09:23:13;;;;;;;4.55;2.55;;;;;;;22.54;64.27;99301.78;4369162;32;32160;-67
2023/09/19 09:25:54;;;;;;;5.45;2.30;;;;;;;22.70;63.89;99310.66;4370476;32;34764;-67
2023/09/19 09:28:28;;;;;;;3.40;1.87;;;;;;;22.56;64.54;99307.03;4376850;32;31841;-67
2023/09/19 09:30:56;;;;;;;3.40;1.73;;;;;;;22.70;63.55;99313.41;4371297;32;33227;-67
2023/09/19 09:33:28;;;;;;;3.25;1.77;;;;;;;22.82;62.90;99324.53;4369681;32;34642;-67
2023/09/19 09:36:02;;;;;;;4.37;1.77;;;;;;;22.76;63.38;99328.91;4374272;32;33563;-67
2023/09/19 09:38:44;;;;;;;4.65;2.33;;;;;;;22.39;64.59;99331.06;4370548;32;34460;-67
2023/09/19 09:41:15;;;;;;;4.60;1.95;;;;;;;22.51;64.19;99334.91;4374510;32;34655;-67
2023/09/19 09:43:46;;;;;;;6.12;3.12;;;;;;;22.36;65.16;99342.38;4378737;32;32724;-67
2023/09/19 09:49:25;;;;;;;4.57;2.95;;;;;;;21.64;68.27;99354.41;4346678;32;33753;-69
2023/09/19 09:52:00;;;;;;;4.10;2.45;;;;;;;21.99;66.66;99347.13;4355903;32;33591;-69
2023/09/19 09:54:38;;;;;;;3.97;2.17;;;;;;;22.02;66.19;99344.03;4357052;32;34544;-70
2023/09/19 09:57:13;;;;;;;4.93;2.78;;;;;;;22.26;65.67;99341.91;4357364;32;34664;-71
2023/09/19 09:59:57;;;;;;;4.93;2.78;;;;;;;22.46;65.18;99339.28;4355975;32;33787;-70
2023/09/19 10:02:36;;;;;;;4.00;2.60;;;;;;;22.35;67.06;99346.16;4364219;32;32917;-71
2023/09/19 10:05:28;;;;;;;5.43;3.12;;;;;;;22.58;67.04;99342.28;4370746;32;33437;-70
2023/09/19 10:08:04;;;;;;;5.35;2.67;;;;;;;22.76;66.68;99339.84;4372595;32;33853;-70
2023/09/19 10:13:18;;;;;;;3.80;2.92;;;;;;;22.98;65.72;99352.34;4390967;32;34424;-68
2023/09/19 10:15:50;;;;;;;5.87;3.78;;;;;;;22.82;66.29;99344.47;4386646;32;34229;-68
2023/09/19 10:18:23;;;;;;;4.70;2.40;;;;;;;22.79;65.78;99343.03;4383963;32;35050;-69
2023/09/19 10:20:51;;;;;;;5.32;3.12;;;;;;;23.32;64.16;99347.81;4386016;32;33844;-69
2023/09/19 10:23:23;;;;;;;4.37;2.78;;;;;;;23.31;64.78;99350.78;4388151;32;32956;-70
2023/09/19 10:25:52;;;;;;;4.28;2.70;;;;;;;22.91;64.56;99354.19;4394548;32;33825;-70
2023/09/19 10:28:24;;;;;;;4.78;3.37;;;;;;;22.99;64.50;99356.78;4424457;32;35345;-70
2023/09/19 10:30:53;;;;;;;5.00;2.47;;;;;;;22.79;65.02;99356.66;4427449;32;35151;-70
2023/09/19 10:33:25;;;;;;;4.25;3.10;;;;;;;22.99;63.69;99364.97;4428513;32;33736;-70
2023/09/19 10:35:57;;;;;;;4.37;2.35;;;;;;;23.00;64.43;99358.44;4430080;32;32591;-70
2023/09/19 10:38:26;;;;;;;7.57;3.67;;;;;;;23.33;63.40;99362.31;4436830;32;35049;-70
2023/09/19 10:41:00;;;;;;;2.75;1.62;;;;;;;23.10;64.26;99362.69;4438918;32;33765;-70
2023/09/19 10:43:30;;;;;;;;;;;;;;;23.01;63.35;99365.56;4427475;32;33329;-70
2023/09/19 10:46:12;;;;;;;7.57;2.62;;;;;;;23.17;62.38;99367.09;4427634;32;34086;-69
2023/09/19 10:48:43;;;;;;;3.65;2.00;;;;;;;23.09;63.79;99364.56;4426323;32;35026;-70
2023/09/19 10:51:15;;;;;;;5.07;3.03;;;;;;;23.16;63.92;99375.50;4427378;32;33925;-69
2023/09/19 10:53:50;;;;;;;4.22;2.30;;;;;;;22.74;65.86;99380.12;4428795;32;34203;-70
2023/09/19 10:56:27;;;;;;;5.55;3.20;;;;;;;22.93;64.43;99379.41;4433049;32;33580;-70
2023/09/19 10:59:21;;;;;;;4.82;1.80;;;;;;;23.20;62.26;99383.06;4396046;32;33821;-70
2023/09/19 11:01:56;;;;;;;4.82;1.67;;;;;;;23.32;61.32;99390.69;4324164;33;34473;-71
2023/09/19 11:04:35;;;;;;;3.67;1.62;;;;;;;23.19;63.12;99392.31;4320043;33;33285;-70
2023/09/19 11:07:04;;;;;;;3.10;1.62;;;;;;;23.42;63.04;99389.22;4312260;33;34727;-71
2023/09/19 11:09:57;;;;;;;3.53;1.55;;;;;;;23.09;64.75;99396.50;4328844;33;33572;-70
2023/09/19 11:12:32;;;;;;;3.08;1.60;;;;;;;23.37;63.62;99386.28;4325504;33;34955;-70
2023/09/19 11:15:00;;;;;;;3.75;1.65;;;;;;;23.52;62.04;99396.19;4328499;33;33558;-70
2023/09/19 11:17:32;;;;;;;3.42;1.40;;;;;;;23.47;61.18;99392.19;4324634;33;33916;-70
2023/09/19 11:22:56;;;;;;;2.30;1.25;;;;;;;23.23;61.51;99388.12;4321560;33;35014;-70
2023/09/19 11:25:37;;;;;;;2.78;1.02;;;;;;;23.44;59.71;99383.56;4326435;33;33230;-70
2023/09/19 11:28:05;;;;;;;3.62;1.40;;;;;;;23.43;59.61;99382.72;4325738;33;33503;-71
2023/09/19 11:30:34;;;;;;;2.15;1.20;;;;;;;23.69;58.13;99373.78;4333618;33;35288;-72
2023/09/19 11:33:43;;;;;;;3.58;1.25;;;;;;;23.77;56.49;99378.19;4339125;33;34036;-71
2023/09/19 11:36:15;;;;;;;2.90;1.30;;;;;;;23.14;57.46;99380.31;4332429;32;33266;-71
2023/09/19 11:38:49;;;;;;;2.25;1.02;;;;;;;23.35;58.56;99380.19;4395764;32;34808;-71
2023/09/19 11:41:20;;;;;;;1.40;0.82;;;;;;;23.45;57.59;99375.16;4450943;32;34014;-71
2023/09/19 11:43:51;;;;;;;2.53;1.08;;;;;;;23.85;56.90;99371.66;4439536;32;34544;-70
2023/09/19 11:46:24;;;;;;;2.58;0.62;;;;;;;23.93;56.81;99372.28;4436662;32;33516;-70
2023/09/19 11:48:52;;;;;;;6.25;1.30;;;;;;;24.28;56.38;99368.50;4430606;32;35124;-70
2023/09/19 11:51:26;;;;;;;4.22;1.12;;;;;;;24.02;56.77;99372.94;4434867;32;34057;-70
2023/09/19 11:53:56;;;;;;;2.12;0.82;;;;;;;24.35;56.80;99372.06;4446411;32;33845;-71
2023/09/19 11:56:26;;;;;;;1.65;1.08;;;;;;;24.70;55.94;99363.59;4445545;32;32447;-71
2023/09/19 11:58:56;;;;;;;2.40;1.15;;;;;;;24.83;56.19;99366.28;4433165;32;34664;-71